Time;durP1;ratioP1;P1;durP2;ratioP2;P2;SDS_P1;SDS_P2;PMS_P1;PMS_P2;Temp;Humidity;BMP_temperature;BMP_pressure;BME280_temperature;BME280_humidity;BME280_pressure;Samples;Min_cycle;Max_cycle;Signal;HPM_P1;HPM_P2
2021/12/06 00:02:18;;;;;;;89.57;33.33;;;;;;;;;;5037490;28;20148;-64
2021/12/06 00:04:44;;;;;;;77.93;31.15;;;;;;;;;;5032606;28;20033;-64
2021/12/06 00:07:10;;;;;;;79.65;32.00;;;;;;;;;;5027874;28;20040;-64
2021/12/06 00:09:36;;;;;;;99.07;35.78;;;;;;;;;;5036266;28;20036;-64
2021/12/06 00:12:02;;;;;;;87.30;33.75;;;;;;;;;;5030265;28;20104;-64
2021/12/06 00:14:29;;;;;;;81.97;32.45;;;;;;;;;;5032536;28;20025;-64
2021/12/06 00:16:55;;;;;;;73.35;29.58;;;;;;;;;;5028260;28;20070;-64
2021/12/06 00:19:21;;;;;;;74.70;30.60;;;;;;;;;;5042146;28;20144;-64
2021/12/06 00:21:47;;;;;;;80.32;31.90;;;;;;;;;;5035147;28;20107;-64
2021/12/06 00:24:13;;;;;;;79.30;31.00;;;;;;;;;;5032029;28;20519;-64
2021/12/06 00:26:39;;;;;;;80.55;32.63;;;;;;;;;;5029108;28;20033;-64
2021/12/06 00:29:05;;;;;;;90.63;31.50;;;;;;;;;;5010772;28;20396;-64
2021/12/06 00:31:33;;;;;;;75.80;28.73;;;;;;;;;;5029010;28;20086;-64
2021/12/06 00:34:03;;;;;;;79.78;30.73;;;;;;;;;;5025994;28;20117;-64
2021/12/06 00:36:31;;;;;;;79.22;30.65;;;;;;;;;;5026801;28;20112;-64
2021/12/06 00:38:57;;;;;;;83.88;32.72;;;;;;;;;;5031290;28;20044;-64
2021/12/06 00:41:23;;;;;;;87.50;31.73;;;;;;;;;;5036124;28;20041;-64
2021/12/06 00:43:49;;;;;;;85.68;31.77;;;;;;;;;;5032131;28;20442;-64
2021/12/06 00:46:15;;;;;;;79.25;28.80;;;;;;;;;;5028526;28;20053;-64
2021/12/06 00:48:41;;;;;;;85.32;29.98;;;;;;;;;;5031057;28;20029;-64
2021/12/06 00:51:07;;;;;;;92.80;32.20;;;;;;;;;;5035654;28;20029;-64
2021/12/06 00:53:33;;;;;;;96.50;31.85;;;;;;;;;;5034194;28;20053;-64
2021/12/06 00:55:59;;;;;;;79.03;29.50;;;;;;;;;;5029970;28;20022;-64
2021/12/06 00:58:25;;;;;;;80.03;30.13;;;;;;;;;;5031095;28;20741;-64
2021/12/06 01:00:52;;;;;;;79.82;29.27;;;;;;;;;;5040158;28;20698;-64
2021/12/06 01:03:18;;;;;;;90.78;32.00;;;;;;;;;;5028923;28;20680;-64
2021/12/06 01:05:45;;;;;;;83.70;29.63;;;;;;;;;;5026350;28;20037;-64
2021/12/06 01:08:11;;;;;;;93.47;31.23;;;;;;;;;;5029185;28;20767;-64
2021/12/06 01:10:37;;;;;;;78.13;29.23;;;;;;;;;;5038358;28;20408;-63
2021/12/06 01:13:03;;;;;;;79.38;28.98;;;;;;;;;;5016976;28;20018;-64
2021/12/06 01:15:29;;;;;;;86.55;30.05;;;;;;;;;;5013553;28;20685;-63
2021/12/06 01:17:55;;;;;;;78.50;30.25;;;;;;;;;;5027340;28;20021;-64
2021/12/06 01:20:26;;;;;;;84.93;28.65;;;;;;;;;;5034046;28;20032;-63
2021/12/06 01:22:57;;;;;;;82.07;28.45;;;;;;;;;;5030018;28;20164;-63
2021/12/06 01:31:10;;;;;;;78.75;28.48;;;;;;;;;;5031988;28;20033;-63
2021/12/06 01:39:13;;;;;;;73.60;28.00;;;;;;;;;;5024302;28;20025;-63
2021/12/06 01:41:40;;;;;;;69.20;25.98;;;;;;;;;;5013772;28;20140;-63
2021/12/06 01:44:07;;;;;;;76.95;25.85;;;;;;;;;;5028716;28;20530;-63
2021/12/06 01:46:35;;;;;;;69.97;26.10;;;;;;;;;;5027746;28;20033;-64
2021/12/06 01:49:01;;;;;;;69.00;26.75;;;;;;;;;;5025107;28;20025;-63
2021/12/06 01:51:28;;;;;;;69.65;25.83;;;;;;;;;;5035789;28;20025;-64
2021/12/06 01:53:54;;;;;;;75.85;28.40;;;;;;;;;;5034581;28;20028;-64
2021/12/06 01:56:20;;;;;;;64.88;25.90;;;;;;;;;;5030543;28;20673;-63
2021/12/06 01:58:46;;;;;;;62.45;24.92;;;;;;;;;;5024356;28;20029;-63
2021/12/06 02:01:13;;;;;;;66.40;25.20;;;;;;;;;;5015770;28;20093;-64
2021/12/06 02:03:40;;;;;;;69.68;25.90;;;;;;;;;;5016601;28;20053;-63
2021/12/06 02:06:07;;;;;;;67.13;26.40;;;;;;;;;;5029933;28;20029;-64
2021/12/06 02:08:33;;;;;;;65.85;26.35;;;;;;;;;;5009152;28;20025;-62
2021/12/06 02:11:03;;;;;;;71.43;26.80;;;;;;;;;;5032802;28;20044;-65
2021/12/06 02:13:41;;;;;;;68.72;26.40;;;;;;;;;;5028484;28;20058;-63
2021/12/06 02:16:08;;;;;;;68.70;26.05;;;;;;;;;;5029216;28;20029;-64
2021/12/06 02:21:04;;;;;;;60.05;25.38;;;;;;;;;;5034571;28;20156;-63
2021/12/06 02:23:30;;;;;;;69.97;26.38;;;;;;;;;;5035444;28;20025;-63
2021/12/06 02:25:57;;;;;;;65.55;25.13;;;;;;;;;;5029333;28;20025;-63
2021/12/06 02:28:23;;;;;;;66.10;26.13;;;;;;;;;;5025178;28;20057;-63
2021/12/06 02:30:49;;;;;;;68.80;26.02;;;;;;;;;;5014358;28;20029;-64
2021/12/06 02:33:16;;;;;;;57.70;23.77;;;;;;;;;;5033780;28;20035;-64
2021/12/06 02:35:42;;;;;;;60.75;24.15;;;;;;;;;;5014928;28;20025;-64
2021/12/06 02:38:08;;;;;;;63.50;24.88;;;;;;;;;;5026779;28;20030;-63
2021/12/06 02:40:35;;;;;;;64.53;25.08;;;;;;;;;;5026771;28;20034;-63
2021/12/06 02:43:03;;;;;;;57.15;24.38;;;;;;;;;;5032689;28;20040;-63
2021/12/06 02:45:30;;;;;;;57.72;23.55;;;;;;;;;;5030523;28;20100;-64
2021/12/06 02:47:56;;;;;;;61.75;23.10;;;;;;;;;;5027410;28;20135;-63
2021/12/06 02:50:28;;;;;;;61.92;24.33;;;;;;;;;;5028267;28;20022;-63
2021/12/06 02:52:55;;;;;;;57.88;23.75;;;;;;;;;;5037819;28;20140;-64
2021/12/06 02:55:36;;;;;;;61.67;24.02;;;;;;;;;;5016851;28;20029;-64
2021/12/06 02:58:13;;;;;;;54.67;23.17;;;;;;;;;;5027678;28;20211;-64
2021/12/06 03:00:40;;;;;;;61.72;23.67;;;;;;;;;;5026114;28;20028;-64
2021/12/06 03:03:06;;;;;;;57.80;24.52;;;;;;;;;;5036389;28;20028;-64
2021/12/06 03:05:33;;;;;;;61.45;24.50;;;;;;;;;;5031217;28;20112;-64
2021/12/06 03:08:00;;;;;;;60.70;23.60;;;;;;;;;;5026987;28;20029;-64
2021/12/06 03:10:27;;;;;;;57.15;23.77;;;;;;;;;;5024173;28;20497;-64
2021/12/06 03:12:53;;;;;;;61.70;23.60;;;;;;;;;;5034228;28;20032;-64
2021/12/06 03:15:19;;;;;;;53.70;21.80;;;;;;;;;;5028335;28;20087;-64
2021/12/06 03:17:47;;;;;;;56.95;23.05;;;;;;;;;;5029861;28;20029;-64
2021/12/06 03:20:14;;;;;;;51.65;21.85;;;;;;;;;;5022787;28;20029;-64
2021/12/06 03:22:41;;;;;;;57.55;22.38;;;;;;;;;;5030306;28;20113;-64
2021/12/06 03:25:08;;;;;;;53.10;21.77;;;;;;;;;;5029676;28;20037;-63
2021/12/06 03:27:34;;;;;;;51.40;21.52;;;;;;;;;;5028409;28;20037;-63
2021/12/06 03:30:00;;;;;;;47.20;20.63;;;;;;;;;;5025358;28;20096;-64
2021/12/06 03:32:27;;;;;;;51.28;20.02;;;;;;;;;;5037586;28;20075;-63
2021/12/06 03:34:53;;;;;;;54.05;21.40;;;;;;;;;;5026807;28;20026;-63
2021/12/06 03:37:19;;;;;;;53.13;21.27;;;0.30;99.90;;;;;;5026146;28;20151;-64
2021/12/06 03:39:47;;;;;;;59.78;23.88;;;;;;;;;;5024935;28;20140;-63
2021/12/06 03:42:19;;;;;;;56.60;22.15;;;;;;;;;;5034668;28;20091;-64
2021/12/06 03:44:46;;;;;;;52.35;21.92;;;;;;;;;;5022735;28;20068;-63
2021/12/06 03:47:12;;;;;;;49.85;21.65;;;;;;;;;;5029844;28;20140;-63
2021/12/06 03:49:42;;;;;;;60.63;23.35;;;;;;;;;;5024147;28;20113;-63
2021/12/06 03:52:10;;;;;;;56.72;22.30;;;;;;;;;;5031062;28;20013;-63
2021/12/06 03:54:36;;;;;;;62.47;23.98;;;;;;;;;;5032047;28;20022;-63
2021/12/06 03:57:02;;;;;;;61.22;21.83;;;;;;;;;;5030275;28;20041;-63
2021/12/06 03:59:29;;;;;;;52.42;22.17;;;;;;;;;;5025570;28;20025;-64
2021/12/06 04:01:55;;;;;;;53.58;21.45;;;;;;;;;;5031315;28;20029;-64
2021/12/06 04:04:23;;;;;;;55.25;22.02;;;;;;;;;;5028950;28;20421;-63
2021/12/06 04:06:49;;;;;;;49.20;19.75;;;;;;;;;;5029349;28;20536;-63
2021/12/06 04:09:16;;;;;;;52.90;21.02;;;;;;;;;;5026382;28;20090;-63
2021/12/06 04:11:42;;;;;;;58.53;20.85;;;;;;;;;;5028141;28;20029;-63
2021/12/06 04:14:08;;;;;;;55.53;20.80;;;;;;;;;;5036098;28;20028;-63
2021/12/06 04:16:34;;;;;;;55.17;21.20;;;;;;;;;;5031666;28;20028;-63
2021/12/06 04:19:01;;;;;;;58.08;23.27;;;;;;;;;;5026044;28;20025;-63
2021/12/06 04:21:28;;;;;;;67.28;23.10;;;;;;;;;;5038134;28;20044;-63
2021/12/06 04:23:54;;;;;;;65.93;23.20;;;;;;;;;;5034873;28;20036;-63
2021/12/06 04:26:20;;;;;;;61.10;24.55;;;;;;;;;;5033666;28;20033;-63
2021/12/06 04:28:49;;;;;;;68.70;26.88;;;;;;;;;;5028685;28;20048;-63
2021/12/06 04:31:17;;;;;;;74.20;27.55;;;;;;;;;;5011709;28;20045;-63
2021/12/06 04:33:43;;;;;;;61.97;24.95;;;;;;;;;;5031158;28;20028;-63
2021/12/06 04:36:09;;;;;;;81.28;27.58;;;;;;;;;;5034612;28;20029;-63
2021/12/06 04:38:35;;;;;;;73.20;27.58;;;;;;;;;;5030073;28;20108;-63
2021/12/06 04:41:03;;;;;;;73.90;27.80;;;;;;;;;;5010886;28;20033;-63
2021/12/06 04:43:29;;;;;;;82.57;29.85;;;;;;;;;;5037212;28;20084;-63
2021/12/06 04:45:56;;;;;;;79.55;28.67;;;;;;;;;;5032623;28;20036;-63
2021/12/06 04:48:22;;;;;;;75.95;27.20;;;;;;;;;;5030367;28;20052;-63
2021/12/06 04:50:48;;;;;;;78.45;28.15;;;;;;;;;;5024149;28;20028;-63
2021/12/06 04:53:14;;;;;;;87.55;31.90;;;;;;;;;;5032639;28;20074;-64
2021/12/06 04:55:40;;;;;;;75.65;28.63;;;;;;;;;;5039537;28;20017;-63
2021/12/06 04:58:06;;;;;;;86.97;30.50;;;;;;;;;;5033092;28;20044;-63
2021/12/06 05:00:34;;;;;;;75.32;28.23;;;;;;;;;;5027312;28;20083;-63
2021/12/06 05:03:00;;;;;;;74.60;29.45;;;;;;;;;;5029491;28;20029;-63
2021/12/06 05:05:27;;;;;;;87.00;33.45;;;0.30;99.90;;;;;;5035674;28;20384;-63
2021/12/06 05:07:54;;;;;;;73.75;29.55;;;0.10;99.90;;;;;;5033969;28;20040;-63
2021/12/06 05:10:20;;;;;;;80.00;30.65;;;;;;;;;;5028939;28;20133;-63
2021/12/06 05:12:46;;;;;;;74.85;31.15;;;;;;;;;;5025690;28;20021;-63
2021/12/06 05:15:12;;;;;;;78.70;28.58;;;;;;;;;;5033634;28;20571;-63
2021/12/06 05:17:38;;;;;;;71.50;27.80;;;;;;;;;;5032546;28;20021;-63
2021/12/06 05:20:05;;;;;;;67.53;27.70;;;;;;;;;;5013718;28;20104;-63
2021/12/06 05:22:31;;;;;;;88.50;31.25;;;;;;;;;;5012988;28;20033;-63
2021/12/06 05:24:58;;;;;;;82.32;30.05;;;;;;;;;;5039860;28;20021;-63
2021/12/06 05:27:28;;;;;;;79.28;28.20;;;;;;;;;;5031528;28;20033;-63
2021/12/06 05:29:58;;;;;;;76.63;28.83;;;;;;;;;;5030730;28;20123;-63
2021/12/06 05:32:26;;;;;;;85.32;29.15;;;;;;;;;;5025571;28;20037;-63
2021/12/06 05:35:01;;;;;;;73.05;28.33;;;;;;;;;;5037725;28;20727;-63
2021/12/06 05:37:27;;;;;;;89.45;31.00;;;;;;;;;;5036784;28;20493;-63
2021/12/06 05:39:52;;;;;;;89.25;32.47;;;;;;;;;;5031730;28;20072;-63
2021/12/06 05:42:18;;;;;;;83.18;29.63;;;;;;;;;;5026392;28;20041;-63
2021/12/06 05:44:44;;;;;;;84.57;30.88;;;;;;;;;;5031795;28;20104;-63
2021/12/06 05:47:10;;;;;;;85.80;30.42;;;;;;;;;;5034845;28;20040;-63
2021/12/06 05:49:36;;;;;;;77.97;29.85;;;;;;;;;;5032394;28;20037;-63
2021/12/06 05:52:02;;;;;;;88.95;32.03;;;;;;;;;;5026339;28;20025;-63
2021/12/06 05:54:28;;;;;;;99.90;33.75;;;;;;;;;;5033565;28;20087;-63
2021/12/06 05:56:54;;;;;;;92.38;33.40;;;;;;;;;;5033318;28;20100;-63
2021/12/06 05:59:20;;;;;;;83.07;32.33;;;;;;;;;;5031557;28;20025;-63
2021/12/06 06:01:49;;;;;;;88.75;32.47;;;;;;;;;;5022540;28;20803;-64
2021/12/06 06:04:15;;;;;;;96.18;34.33;;;;;;;;;;5029512;28;20560;-64
2021/12/06 06:06:41;;;;;;;105.43;36.45;;;;;;;;;;5017749;28;20034;-65
2021/12/06 06:09:07;;;;;;;90.53;33.08;;;;;;;;;;5018348;28;20025;-64
2021/12/06 06:11:34;;;;;;;95.38;34.88;;;;;;;;;;5024964;28;20044;-63
2021/12/06 06:14:00;;;;;;;99.97;35.25;;;;;;;;;;5022712;28;20031;-63
2021/12/06 06:16:31;;;;;;;88.97;32.72;;;;;;;;;;5036382;28;20024;-63
2021/12/06 06:18:57;;;;;;;92.65;32.95;;;;;;;;;;5021725;28;20104;-64
2021/12/06 06:21:23;;;;;;;82.53;32.10;;;;;;;;;;5024119;28;20136;-63
2021/12/06 06:23:49;;;;;;;90.35;33.65;;;;;;;;;;5026941;28;20033;-64
2021/12/06 06:26:14;;;;;;;92.13;32.90;;;;;;;;;;5029875;28;20073;-63
2021/12/06 06:28:40;;;;;;;97.40;33.88;;;;;;;;;;5031300;28;20025;-64
2021/12/06 06:31:06;;;;;;;87.82;32.95;;;;;;;;;;5023582;28;20485;-64
2021/12/06 06:33:32;;;;;;;102.13;36.97;;;;;;;;;;5026713;28;20029;-64
2021/12/06 06:35:58;;;;;;;106.63;35.60;;;;;;;;;;5030634;28;20034;-64
2021/12/06 06:38:24;;;;;;;100.15;35.65;;;;;;;;;;5023938;28;20048;-64
2021/12/06 06:40:50;;;;;;;94.68;33.97;;;;;;;;;;5022133;28;20022;-64
2021/12/06 06:43:16;;;;;;;105.05;37.03;;;;;;;;;;5018963;28;20034;-64
2021/12/06 06:45:42;;;;;;;103.22;35.60;;;;;;;;;;5031329;28;20095;-64
2021/12/06 06:48:08;;;;;;;94.20;35.92;;;0.70;99.90;;;;;;5028746;28;20040;-64
2021/12/06 06:50:34;;;;;;;91.97;35.08;;;;;;;;;;5016352;28;20120;-64
2021/12/06 06:53:00;;;;;;;92.10;33.75;;;;;;;;;;5021881;28;20026;-64
2021/12/06 06:55:26;;;;;;;93.60;34.17;;;;;;;;;;5027839;28;20034;-64
2021/12/06 06:57:51;;;;;;;93.90;33.10;;;;;;;;;;5027484;28;20036;-64
2021/12/06 07:00:17;;;;;;;96.13;33.10;;;;;;;;;;5027698;28;20128;-64
2021/12/06 07:02:43;;;;;;;98.32;34.45;;;;;;;;;;5019805;28;20034;-64
2021/12/06 07:05:09;;;;;;;88.07;34.13;;;;;;;;;;5019158;28;20124;-67
2021/12/06 07:07:35;;;;;;;84.88;33.22;;;;;;;;;;5025257;28;20025;-66
2021/12/06 07:10:01;;;;;;;82.43;32.45;;;;;;;;;;5025906;28;20033;-66
2021/12/06 07:12:28;;;;;;;94.13;34.13;;;;;;;;;;5014246;28;20034;-66
2021/12/06 07:14:54;;;;;;;96.75;33.72;;;;;;;;;;5021175;28;20043;-66
2021/12/06 07:17:20;;;;;;;88.47;34.60;;;;;;;;;;5028118;28;20679;-66
2021/12/06 07:58:35;;;;;;;104.15;35.42;;;;;;;;;;5088945;27;20117;-69
2021/12/06 08:01:01;;;;;;;117.68;38.90;;;;;;;;;;5086921;28;20035;-66
2021/12/06 08:03:30;;;;;;;121.68;38.55;;;;;;;;;;5082471;28;20515;-66
2021/12/06 08:05:56;;;;;;;114.22;40.85;;;;;;;;;;5088990;28;20024;-66
2021/12/06 08:08:23;;;;;;;120.72;38.60;;;;;;;;;;5079365;28;20484;-66
2021/12/06 08:10:49;;;;;;;118.03;41.28;;;;;;;;;;5080135;28;20116;-67
2021/12/06 08:13:15;;;;;;;111.95;39.15;;;;;;;;;;5079750;28;20028;-66
2021/12/06 08:15:41;;;;;;;111.35;36.97;;;;;;;;;;5079932;28;20035;-66
2021/12/06 08:18:07;;;;;;;114.10;38.63;;;;;;;;;;5083158;28;20652;-66
2021/12/06 08:20:33;;;;;;;123.82;41.15;;;;;;;;;;5080095;28;20024;-66
2021/12/06 08:22:59;;;;;;;140.38;47.97;;;;;;;;;;5085114;28;20764;-66
2021/12/06 08:25:25;;;;;;;121.97;40.75;;;;;;;;;;5088235;28;20060;-66
2021/12/06 08:27:51;;;;;;;107.97;37.80;;;;;;;;;;5080164;28;20064;-66
2021/12/06 08:30:21;;;;;;;122.47;40.30;;;;;;;;;;5076706;28;20040;-66
2021/12/06 08:32:48;;;;;;;111.75;37.88;;;;;;;;;;5078373;28;20036;-66
2021/12/06 08:35:14;;;;;;;103.47;35.78;;;;;;;;;;5091590;28;20035;-66
2021/12/06 08:37:40;;;;;;;111.63;38.03;;;;;;;;;;5079287;28;20040;-66
2021/12/06 08:40:06;;;;;;;124.80;39.30;;;;;;;;;;5083243;28;20062;-66
2021/12/06 08:42:32;;;;;;;116.57;37.80;;;;;;;;;;5075791;28;20024;-66
2021/12/06 08:44:58;;;;;;;100.88;37.83;;;;;;;;;;5088856;28;20027;-66
2021/12/06 08:47:25;;;;;;;106.63;38.47;;;;;;;;;;5076354;28;20067;-66
2021/12/06 08:49:51;;;;;;;102.13;35.40;;;;;;;;;;5080082;28;20032;-66
2021/12/06 08:52:17;;;;;;;100.28;34.53;;;;;;;;;;5079245;28;20020;-66
2021/12/06 08:54:43;;;;;;;112.82;38.40;;;;;;;;;;5074326;28;20032;-66
2021/12/06 08:57:09;;;;;;;110.93;38.97;;;;;;;;;;5079279;28;20074;-67
2021/12/06 08:59:35;;;;;;;113.63;37.10;;;;;;;;;;5080091;28;20109;-65
2021/12/06 09:02:01;;;;;;;93.63;33.40;;;;;;;;;;5081193;28;20051;-66
2021/12/06 09:04:27;;;;;;;92.68;33.95;;;;;;;;;;5082451;28;20442;-66
2021/12/06 09:06:53;;;;;;;94.75;35.55;;;;;;;;;;5081488;28;20032;-66
2021/12/06 09:09:19;;;;;;;87.45;33.80;;;;;;;;;;5068989;28;20035;-66
2021/12/06 09:11:45;;;;;;;89.53;33.92;;;;;;;;;;5066971;28;20037;-67
2021/12/06 09:14:11;;;;;;;90.93;34.08;;;;;;;;;;5071081;28;20088;-66
2021/12/06 09:16:37;;;;;;;82.10;32.25;;;;;;;;;;5067606;28;20518;-66
2021/12/06 09:19:03;;;;;;;89.30;34.20;;;;;;;;;;5067106;28;20032;-66
2021/12/06 09:21:29;;;;;;;86.38;33.40;;;;;;;;;;5067425;28;20755;-66
2021/12/06 09:23:55;;;;;;;93.25;33.75;;;;;;;;;;5069605;28;20016;-66
2021/12/06 09:26:21;;;;;;;86.15;32.83;;;;;;;;;;5068654;28;20032;-66
2021/12/06 09:28:47;;;;;;;84.55;32.75;;;;;;;;;;5065570;28;20588;-66
2021/12/06 09:31:13;;;;;;;74.72;30.48;;;2.20;99.90;;;;;;5058536;28;20020;-66
2021/12/06 09:33:39;;;;;;;79.95;31.85;;;;;;;;;;5070685;28;20024;-66
2021/12/06 09:36:05;;;;;;;89.07;30.67;;;;;;;;;;5064929;28;20028;-66
2021/12/06 09:38:38;;;;;;;95.03;33.65;;;;;;;;;;5064363;28;20039;-66
2021/12/06 09:41:04;;;;;;;77.75;30.27;;;;;;;;;;5061107;28;20031;-66
2021/12/06 09:43:30;;;;;;;74.93;30.80;;;;;;;;;;5064352;28;20024;-66
2021/12/06 09:45:56;;;;;;;79.20;29.27;;;;;;;;;;5068081;28;20033;-66
2021/12/06 09:48:22;;;;;;;74.57;29.77;;;;;;;;;;5065315;28;20032;-66
2021/12/06 09:50:48;;;;;;;72.93;29.33;;;;;;;;;;5066087;28;20043;-66
2021/12/06 09:53:14;;;;;;;73.53;28.95;;;;;;;;;;5070949;28;20027;-66
2021/12/06 09:55:42;;;;;;;63.03;27.85;;;;;;;;;;5063582;28;20036;-66
2021/12/06 09:58:08;;;;;;;64.82;26.60;;;;;;;;;;5059799;28;20059;-66
2021/12/06 10:00:34;;;;;;;66.22;28.15;;;;;;;;;;5065978;28;20795;-66
2021/12/06 10:03:00;;;;;;;67.30;27.27;;;;;;;;;;5067617;28;20027;-66
2021/12/06 10:05:29;;;;;;;64.57;26.70;;;;;;;;;;5070421;28;20024;-66
2021/12/06 10:07:54;;;;;;;59.33;25.10;;;2.40;99.90;;;;;;5068021;28;20110;-67
2021/12/06 10:10:20;;;;;;;65.43;27.05;;;;;;;;;;5064215;28;20045;-66
2021/12/06 10:12:51;;;;;;;63.97;27.55;;;;;;;;;;5068398;28;20084;-67
2021/12/06 10:15:17;;;;;;;63.95;26.27;;;;;;;;;;5066518;28;20040;-66
2021/12/06 10:17:43;;;;;;;65.45;26.75;;;;;;;;;;5062018;28;20040;-66
2021/12/06 10:20:09;;;;;;;61.72;26.13;;;;;;;;;;5063637;28;20111;-66
2021/12/06 10:22:35;;;;;;;58.88;26.05;;;;;;;;;;5063841;28;20024;-66
2021/12/06 10:25:01;;;;;;;59.28;25.42;;;;;;;;;;5066357;28;20036;-66
2021/12/06 10:27:28;;;;;;;57.75;23.67;;;;;;;;;;5063694;28;20107;-66
2021/12/06 10:29:54;;;;;;;62.25;23.73;;;;;;;;;;5064079;28;20063;-66
2021/12/06 10:32:20;;;;;;;57.13;23.45;;;;;;;;;;5063053;28;20479;-66
2021/12/06 10:34:46;;;;;;;56.95;24.05;;;;;;;;;;5066786;28;20020;-66
2021/12/06 10:37:12;;;;;;;60.72;24.52;;;;;;;;;;5067835;28;20465;-66
2021/12/06 10:39:38;;;;;;;53.60;23.63;;;;;;;;;;5062480;28;20028;-66
2021/12/06 10:42:04;;;;;;;66.45;24.50;;;;;;;;;;5066632;28;20024;-66
2021/12/06 10:44:30;;;;;;;61.10;25.17;;;;;;;;;;5068207;28;20560;-66
2021/12/06 10:46:56;;;;;;;59.95;25.70;;;;;;;;;;5073875;28;20396;-66
2021/12/06 10:49:22;;;;;;;68.70;29.45;;;;;;;;;;5066940;28;20024;-66
2021/12/06 10:51:48;;;;;;;77.68;31.23;;;;;;;;;;5063286;28;20057;-66
2021/12/06 10:54:21;;;;;;;107.40;39.67;;;;;;;;;;5063246;28;20035;-66
2021/12/06 10:56:47;;;;;;;82.18;31.67;;;;;;;;;;5065966;28;20044;-66
2021/12/06 10:59:13;;;;;;;60.85;25.98;;;;;;;;;;5068143;28;20032;-65
2021/12/06 11:01:39;;;;;;;59.80;24.88;;;;;;;;;;5062432;28;20480;-65
2021/12/06 11:04:05;;;;;;;65.55;25.75;;;;;;;;;;5064376;28;20058;-65
2021/12/06 11:06:32;;;;;;;61.10;24.02;;;;;;;;;;5063732;28;20426;-65
2021/12/06 11:08:58;;;;;;;54.50;22.80;;;;;;;;;;5067154;28;20086;-66
2021/12/06 11:11:26;;;;;;;61.28;23.85;;;;;;;;;;5064256;28;20036;-66
2021/12/06 11:13:52;;;;;;;51.88;21.48;;;;;;;;;;5065974;28;20154;-65
2021/12/06 11:16:19;;;;;;;95.15;38.88;;;;;;;;;;5065276;28;20123;-65
2021/12/06 11:18:45;;;;;;;60.13;25.42;;;;;;;;;;5063006;28;20510;-65
2021/12/06 11:21:11;;;;;;;58.63;24.17;;;;;;;;;;5063411;28;20079;-65
2021/12/06 11:23:37;;;;;;;58.28;24.88;;;;;;;;;;5066120;28;20050;-65
2021/12/06 11:26:04;;;;;;;55.97;23.73;;;;;;;;;;5070532;28;20114;-65
2021/12/06 11:28:30;;;;;;;59.28;24.20;;;;;;;;;;5048239;28;20833;-64
2021/12/06 11:30:56;;;;;;;54.40;22.92;;;;;;;;;;5061401;28;20036;-65
2021/12/06 11:33:22;;;;;;;53.67;22.33;;;;;;;;;;5063995;28;20496;-65
2021/12/06 11:35:47;;;;;;;45.13;20.77;;;;;;;;;;5064708;28;20489;-65
2021/12/06 11:38:13;;;;;;;54.85;23.88;;;;;;;;;;5068323;28;20447;-65
2021/12/06 11:40:40;;;;;;;52.92;22.80;;;;;;;;;;5058899;28;20054;-65
2021/12/06 11:43:06;;;;;;;52.63;22.13;;;;;;;;;;5064711;28;20028;-65
2021/12/06 11:45:32;;;;;;;48.63;22.88;;;;;;;;;;5061938;28;20025;-65
2021/12/06 11:47:58;;;;;;;47.28;20.65;;;;;;;;;;5065326;28;20550;-65
2021/12/06 11:50:24;;;;;;;47.75;21.70;;;;;;;;;;5061540;28;20032;-66
2021/12/06 11:52:50;;;;;;;53.97;21.90;;;;;;;;;;5059332;28;20060;-65
2021/12/06 11:55:16;;;;;;;56.60;22.63;;;;;;;;;;5061440;28;20046;-65
2021/12/06 11:57:42;;;;;;;46.17;20.33;;;;;;;;;;5061793;28;20032;-65
2021/12/06 12:00:07;;;;;;;49.95;21.13;;;;;;;;;;5059390;28;20036;-65
2021/12/06 12:02:34;;;;;;;52.00;21.88;;;;;;;;;;5060040;28;20021;-65
2021/12/06 12:05:00;;;;;;;50.33;22.52;;;;;;;;;;5061473;28;20474;-65
2021/12/06 12:07:26;;;;;;;55.55;23.25;;;;;;;;;;5066894;28;20036;-65
2021/12/06 12:09:52;;;;;;;50.60;22.02;;;;;;;;;;5068028;28;20119;-66
2021/12/06 12:12:23;;;;;;;53.08;21.67;;;;;;;;;;5063355;28;20024;-66
2021/12/06 12:14:57;;;;;;;48.40;21.38;;;;;;;;;;5062195;28;20048;-65
2021/12/06 12:17:23;;;;;;;48.55;20.05;;;;;;;;;;5059707;28;20043;-66
2021/12/06 12:19:49;;;;;;;50.47;21.05;;;;;;;;;;5061013;28;20032;-65
2021/12/06 12:22:15;;;;;;;46.95;21.77;;;;;;;;;;5060279;28;20028;-66
2021/12/06 12:24:44;;;;;;;52.30;22.70;;;;;;;;;;5060509;28;20789;-65
2021/12/06 12:29:45;;;;;;;45.55;20.27;;;;;;;;;;5057243;28;20028;-65
2021/12/06 12:32:11;;;;;;;47.75;20.63;;;;;;;;;;5062537;28;20033;-66
2021/12/06 12:34:37;;;;;;;44.70;21.55;;;;;;;;;;5059646;28;20032;-65
2021/12/06 12:37:03;;;;;;;44.83;19.98;;;;;;;;;;5058380;28;20032;-66
2021/12/06 12:39:29;;;;;;;43.60;20.33;;;;;;;;;;5068988;28;20042;-66
2021/12/06 12:41:55;;;;;;;47.15;20.88;;;;;;;;;;5063041;28;20111;-66
2021/12/06 12:44:21;;;;;;;43.17;20.60;;;;;;;;;;5064116;28;20036;-65
2021/12/06 12:46:48;;;;;;;45.55;20.15;;;;;;;;;;5070277;28;20626;-65
2021/12/06 12:49:14;;;;;;;42.13;18.45;;;;;;;;;;5074922;28;20043;-65
2021/12/06 12:51:40;;;;;;;48.10;20.17;;;;;;;;;;5066119;28;20036;-65
2021/12/06 12:54:06;;;;;;;46.45;19.38;;;;;;;;;;5065862;28;20039;-65
2021/12/06 12:56:32;;;;;;;50.60;21.30;;;;;;;;;;5064542;28;20033;-66
2021/12/06 12:58:59;;;;;;;46.10;21.13;;;;;;;;;;5061946;28;20035;-65
2021/12/06 13:01:25;;;;;;;41.00;18.63;;;;;;;;;;5061639;28;20542;-64
2021/12/06 13:03:51;;;;;;;41.25;19.38;;;;;;;;;;5064834;28;20808;-65
2021/12/06 13:06:17;;;;;;;42.08;19.05;;;;;;;;;;5067235;28;20393;-66
2021/12/06 13:08:43;;;;;;;39.88;17.65;;;;;;;;;;5065254;28;20036;-65
2021/12/06 13:11:09;;;;;;;45.10;20.38;;;;;;;;;;5068977;28;20024;-65
2021/12/06 13:13:40;;;;;;;44.30;19.52;;;;;;;;;;5067882;28;20028;-66
2021/12/06 13:16:22;;;;;;;43.70;19.55;;;;;;;;;;5072954;28;20377;-65
2021/12/06 13:19:09;;;;;;;44.00;19.42;;;;;;;;;;5072443;28;20416;-66
2021/12/06 13:21:42;;;;;;;41.35;18.25;;;;;;;;;;5065357;28;20052;-66
2021/12/06 13:24:08;;;;;;;48.28;19.48;;;;;;;;;;5064435;28;20024;-66
2021/12/06 13:26:34;;;;;;;41.20;18.92;;;;;;;;;;5064684;28;20085;-65
2021/12/06 13:29:00;;;;;;;42.83;18.85;;;;;;;;;;5073804;28;20063;-66
2021/12/06 13:31:26;;;;;;;42.58;19.38;;;3.60;99.90;;;;;;5074141;28;20056;-65
2021/12/06 13:33:52;;;;;;;46.75;21.08;;;;;;;;;;5064299;28;20135;-66
2021/12/06 13:36:19;;;;;;;42.95;19.48;;;4.10;99.90;;;;;;5066364;28;20830;-65
2021/12/06 13:38:48;;;;;;;41.30;19.95;;;;;;;;;;5063132;28;20032;-65
2021/12/06 13:41:13;;;;;;;45.80;18.95;;;4.20;99.90;;;;;;5068313;28;20399;-66
2021/12/06 13:43:41;;;;;;;42.67;19.45;;;;;;;;;;5066972;28;20020;-65
2021/12/06 13:46:07;;;;;;;39.13;19.25;;;;;;;;;;5061426;28;20655;-65
2021/12/06 13:48:33;;;;;;;42.05;19.42;;;;;;;;;;5071906;28;20118;-65
2021/12/06 13:50:59;;;;;;;47.78;19.42;;;;;;;;;;5068759;28;20088;-65
2021/12/06 13:53:25;;;;;;;44.67;19.45;;;;;;;;;;5063732;28;20102;-65
2021/12/06 13:55:51;;;;;;;48.33;19.92;;;;;;;;;;5065412;28;20072;-65
2021/12/06 13:58:17;;;;;;;44.83;20.42;;;;;;;;;;5067666;28;20028;-65
2021/12/06 14:00:45;;;;;;;41.83;19.55;;;;;;;;;;5067476;28;20024;-66
2021/12/06 14:03:13;;;;;;;46.97;19.77;;;;;;;;;;5061717;28;20036;-65
2021/12/06 14:05:39;;;;;;;44.45;19.05;;;;;;;;;;5067030;28;20028;-66
2021/12/06 14:08:05;;;;;;;49.15;20.35;;;;;;;;;;5067960;28;20549;-73
2021/12/06 14:10:31;;;;;;;45.65;19.77;;;;;;;;;;5066098;28;20081;-73
2021/12/06 14:12:57;;;;;;;44.03;20.73;;;;;;;;;;5063588;28;20048;-73
2021/12/06 14:15:36;;;;;;;45.35;20.27;;;;;;;;;;5068444;28;20038;-73
2021/12/06 14:18:02;;;;;;;48.38;20.95;;;;;;;;;;5062979;28;20075;-73
2021/12/06 14:20:28;;;;;;;47.38;20.58;;;;;;;;;;5063404;28;20115;-73
2021/12/06 14:22:54;;;;;;;43.85;21.00;;;;;;;;;;5062944;28;20094;-72
2021/12/06 14:25:19;;;;;;;43.55;18.88;;;3.60;99.90;;;;;;5063976;28;20771;-71
2021/12/06 14:27:45;;;;;;;42.28;18.95;;;3.70;99.90;;;;;;5063693;28;20105;-72
2021/12/06 14:30:11;;;;;;;51.08;22.50;;;;;;;;;;5063734;28;20028;-72
2021/12/06 14:32:37;;;;;;;43.83;19.50;;;;;;;;;;5061407;28;20458;-71
2021/12/06 14:35:03;;;;;;;51.05;20.55;;;;;;;;;;5064930;28;20086;-72
2021/12/06 14:37:29;;;;;;;48.17;20.55;;;;;;;;;;5065332;28;20147;-72
2021/12/06 14:39:58;;;;;;;46.60;20.70;;;;;;;;;;5065856;28;20776;-72
2021/12/06 14:42:24;;;;;;;45.20;21.88;;;;;;;;;;5068634;28;20123;-72
2021/12/06 14:44:50;;;;;;;62.08;23.95;;;;;;;;;;5065791;28;20054;-72
2021/12/06 14:47:16;;;;;;;50.47;21.70;;;;;;;;;;5062981;28;20036;-71
2021/12/06 14:49:42;;;;;;;53.40;22.88;;;;;;;;;;5058946;28;20025;-71
2021/12/06 14:52:14;;;;;;;47.10;20.83;;;;;;;;;;5063788;28;20043;-72
2021/12/06 14:54:40;;;;;;;52.53;21.10;;;;;;;;;;5061894;28;20498;-72
2021/12/06 14:57:07;;;;;;;46.17;21.25;;;;;;;;;;5058350;28;20081;-73
2021/12/06 14:59:35;;;;;;;50.13;22.48;;;;;;;;;;5059501;28;20465;-71
2021/12/06 15:02:01;;;;;;;58.00;22.00;;;;;;;;;;5071915;28;20074;-74
2021/12/06 15:04:41;;;;;;;50.63;20.80;;;;;;;;;;5062894;28;20037;-72